integrated web briefing

Basic information
Name Lech Walesa Airport
ICAO EPGD
IATA GDN
Latitude N54° 22.39'
Longitude E18° 27.58'
Runways 11/29 | 2800m x 45m
Elevation 489.0ft

Arrivals
Callsign From

Departures
Callsign To
LOT9010EPWA

ATC Bookings
Callsign Time [UTC]

Metar

EPGD 180800Z 27005KT CAVOK 08/06 Q1021


Runways
Runway Course Dimensions Equipment Surface
11
108° 2800m x 45m PAPI 3,5° CONCRETE / ASPHALT
29
288° 2800m x 45m ILS CAT II, PAPI 3° CONCRETE / ASPHALT

NAV Aids
Name Type Frequency / Course
GZD VOR/DME 116.100
IGDA ILS CAT II 110.30 / 288°

Air Traffic Control
Callsign Name Frequency
EPGD_DEL Gdansk Delivery 131.320 MHz
EPGD_TWR Gdansk Tower 118.100 MHz
EPGD_APP Gdansk Approach 127.270 MHz
EPGD_F_APP Gdansk Director 133.650 MHz
EPWW_N_CTR Warszawa Radar 130.670 MHz
EPWW_S_CTR Warszawa Radar (main) 125.450 MHz